createdAt,value
2018-06-23T00:01:14.843Z,13.00
2018-06-23T00:05:17.088Z,12.80
2018-06-23T00:09:19.280Z,12.80
2018-06-23T00:13:21.499Z,12.90
2018-06-23T00:17:23.704Z,12.80
2018-06-23T00:21:25.964Z,12.90
2018-06-23T00:25:33.864Z,13.00
2018-06-23T00:29:36.052Z,14.30
2018-06-23T00:33:38.247Z,13.10
2018-06-23T00:37:40.475Z,13.10
2018-06-23T00:41:42.683Z,13.10
2018-06-23T00:45:44.897Z,13.00
2018-06-23T00:49:47.149Z,13.30
2018-06-23T00:53:49.364Z,13.30
2018-06-23T00:57:51.684Z,13.30
2018-06-23T01:01:53.932Z,13.40
2018-06-23T01:05:56.168Z,13.40
2018-06-23T01:09:58.379Z,13.80
2018-06-23T01:14:00.596Z,13.50
2018-06-23T01:18:02.823Z,13.50
2018-06-23T01:22:05.068Z,13.30
2018-06-23T01:26:07.276Z,13.50
2018-06-23T01:30:09.516Z,13.60
2018-06-23T01:34:11.727Z,16.60
2018-06-23T01:38:13.952Z,13.60
2018-06-23T01:42:16.160Z,13.60
2018-06-23T01:46:18.368Z,13.60
2018-06-23T01:50:20.572Z,13.70
2018-06-23T01:54:22.778Z,13.70
2018-06-23T01:58:25.060Z,13.70
2018-06-23T02:02:27.250Z,13.70
2018-06-23T02:06:29.512Z,13.70
2018-06-23T02:10:31.712Z,13.70
2018-06-23T02:14:39.680Z,13.80
2018-06-23T02:18:47.644Z,13.80
2018-06-23T02:22:55.541Z,13.80
2018-06-23T02:27:03.481Z,13.80
2018-06-23T02:31:11.570Z,13.90
2018-06-23T02:35:13.829Z,13.90
2018-06-23T02:39:16.052Z,13.90
2018-06-23T02:43:18.290Z,13.90
2018-06-23T02:47:20.477Z,14.00
2018-06-23T02:51:23.177Z,14.00
2018-06-23T02:55:25.362Z,14.00
2018-06-23T02:59:27.576Z,14.60
2018-06-23T03:03:30.462Z,14.10
2018-06-23T03:07:32.668Z,14.30
2018-06-23T03:11:34.880Z,14.10
2018-06-23T03:15:37.113Z,16.00
2018-06-23T03:19:39.305Z,14.40
2018-06-23T03:23:41.508Z,13.90
2018-06-23T03:27:43.700Z,15.70
2018-06-23T03:31:45.904Z,14.10
2018-06-23T03:39:50.308Z,13.60
2018-06-23T03:43:52.554Z,13.60
2018-06-23T03:47:54.701Z,14.30
2018-06-23T03:51:56.921Z,13.50
2018-06-23T03:55:59.120Z,13.50
2018-06-23T04:04:03.612Z,13.60
2018-06-23T04:12:08.079Z,13.80
2018-06-23T04:16:10.256Z,13.90
2018-06-23T04:20:12.497Z,14.00
2018-06-23T04:24:14.692Z,13.90
2018-06-23T04:28:16.903Z,13.90
2018-06-23T04:32:19.093Z,14.00
2018-06-23T04:36:21.336Z,14.00
2018-06-23T04:40:23.542Z,14.10
2018-06-23T04:44:25.748Z,14.20
2018-06-23T04:48:27.936Z,14.20
2018-06-23T04:52:30.144Z,14.40
2018-06-23T04:56:32.363Z,14.80
2018-06-23T05:00:34.694Z,15.00
2018-06-23T05:04:36.884Z,15.10
2018-06-23T05:08:39.088Z,15.30
2018-06-23T05:12:41.287Z,16.40
2018-06-23T05:16:43.460Z,16.90
2018-06-23T05:20:45.773Z,17.30
2018-06-23T05:24:48.441Z,18.10
2018-06-23T05:28:50.660Z,17.60
2018-06-23T05:32:52.864Z,16.80
2018-06-23T05:36:55.949Z,16.80
2018-06-23T05:40:58.148Z,16.20
2018-06-23T05:45:00.460Z,15.80
2018-06-23T05:49:02.740Z,16.00
2018-06-23T05:53:04.983Z,16.60
2018-06-23T05:57:07.186Z,16.30
2018-06-23T06:01:09.383Z,16.20
2018-06-23T06:05:11.580Z,16.40
2018-06-23T06:09:13.783Z,16.60
2018-06-23T06:13:15.995Z,16.70
2018-06-23T06:17:21.883Z,16.80
2018-06-23T06:21:24.236Z,16.70
2018-06-23T06:25:26.442Z,16.90
2018-06-23T06:29:28.668Z,16.60
2018-06-23T06:33:30.796Z,16.40
2018-06-23T06:37:33.003Z,16.30
2018-06-23T06:45:37.404Z,16.60
2018-06-23T06:49:39.609Z,17.20
2018-06-23T06:53:41.815Z,17.40
2018-06-23T06:57:44.036Z,18.00
2018-06-23T07:01:46.351Z,18.00
2018-06-23T07:05:48.564Z,18.00
2018-06-23T07:09:50.780Z,18.30
2018-06-23T07:13:52.961Z,19.20
2018-06-23T07:17:55.161Z,20.00
2018-06-23T07:21:57.414Z,20.40
2018-06-23T07:25:59.649Z,20.10
2018-06-23T07:30:02.229Z,21.60
2018-06-23T07:34:04.537Z,19.60
2018-06-23T07:38:06.728Z,20.50
2018-06-23T07:42:08.932Z,19.70
2018-06-23T07:46:11.304Z,19.60
2018-06-23T07:50:13.552Z,19.80
2018-06-23T07:54:15.756Z,20.30
2018-06-23T07:58:17.948Z,18.20
2018-06-23T08:02:20.149Z,17.80
2018-06-23T08:06:22.392Z,17.80
2018-06-23T08:10:24.697Z,17.70
2018-06-23T08:14:27.185Z,18.30
2018-06-23T08:18:29.407Z,18.20
2018-06-23T08:22:31.666Z,20.70
2018-06-23T08:26:34.171Z,18.50
2018-06-23T08:30:37.060Z,18.80
2018-06-23T08:34:39.344Z,18.60
2018-06-23T08:38:41.644Z,18.90
2018-06-23T08:42:44.000Z,18.80
2018-06-23T08:46:46.265Z,19.10
2018-06-23T08:50:48.480Z,19.80
2018-06-23T08:54:50.880Z,19.30
2018-06-23T08:58:53.508Z,19.30
2018-06-23T09:02:55.839Z,19.20
2018-06-23T09:06:58.292Z,18.80
2018-06-23T09:11:00.585Z,16.50
2018-06-23T09:15:02.926Z,22.00
2018-06-23T09:19:05.184Z,20.50
2018-06-23T09:23:08.179Z,19.60
2018-06-23T09:27:10.380Z,19.30
2018-06-23T09:31:12.644Z,19.80
2018-06-23T09:35:14.896Z,19.50
2018-06-23T09:39:17.138Z,19.90
2018-06-23T09:43:19.328Z,18.50
2018-06-23T09:47:21.544Z,18.80
2018-06-23T09:51:23.803Z,19.00
2018-06-23T09:55:25.993Z,19.40
2018-06-23T09:59:28.176Z,19.40
2018-06-23T10:03:30.328Z,19.20
2018-06-23T10:07:32.520Z,19.70
2018-06-23T10:11:34.736Z,19.80
2018-06-23T10:15:36.934Z,20.00
2018-06-23T10:19:39.156Z,19.70
2018-06-23T10:23:41.381Z,19.90
2018-06-23T10:27:43.590Z,20.20
2018-06-23T10:31:45.824Z,19.90
2018-06-23T10:35:48.013Z,19.90
2018-06-23T10:39:50.212Z,19.80
2018-06-23T10:43:52.424Z,19.90
2018-06-23T10:47:54.629Z,20.00
2018-06-23T10:51:56.845Z,20.00
2018-06-23T10:55:59.052Z,19.70
2018-06-23T11:00:01.277Z,20.00
2018-06-23T11:04:03.486Z,19.90
2018-06-23T11:08:05.708Z,20.00
2018-06-23T11:12:07.885Z,19.70
2018-06-23T11:16:10.112Z,19.80
2018-06-23T11:20:12.320Z,19.70
2018-06-23T11:24:14.548Z,20.10
2018-06-23T11:28:16.685Z,19.50
2018-06-23T11:32:19.063Z,19.80
2018-06-23T11:36:21.112Z,19.90
2018-06-23T11:40:23.292Z,20.00
2018-06-23T11:44:25.463Z,20.20
2018-06-23T11:48:27.664Z,23.40
2018-06-23T11:52:30.036Z,20.90
2018-06-23T11:56:32.952Z,20.80
2018-06-23T12:00:35.140Z,23.70
2018-06-23T12:04:37.404Z,20.30
2018-06-23T12:08:39.632Z,20.40
2018-06-23T12:12:41.815Z,20.50
2018-06-23T12:16:44.036Z,20.40
2018-06-23T12:20:46.220Z,20.10
2018-06-23T12:24:48.387Z,20.00
2018-06-23T12:28:50.581Z,20.40
2018-06-23T12:32:52.765Z,20.70
2018-06-23T12:36:54.964Z,20.80
2018-06-23T12:40:57.225Z,20.90
2018-06-23T12:44:59.512Z,21.10
2018-06-23T12:49:01.684Z,21.00
2018-06-23T12:53:03.929Z,20.80
2018-06-23T12:57:06.122Z,20.40
2018-06-23T13:01:08.406Z,20.40
2018-06-23T13:05:10.627Z,20.50
2018-06-23T13:09:13.436Z,20.50
2018-06-23T13:13:15.661Z,20.60
2018-06-23T13:17:17.843Z,20.80
2018-06-23T13:21:20.070Z,24.20
2018-06-23T13:25:22.284Z,20.80
2018-06-23T13:29:24.520Z,20.80
2018-06-23T13:33:26.717Z,24.80
2018-06-23T13:37:28.920Z,21.20
2018-06-23T13:41:31.136Z,21.50
2018-06-23T13:45:33.330Z,21.60
2018-06-23T13:49:35.554Z,21.30
2018-06-23T13:53:37.756Z,20.80
2018-06-23T13:57:39.939Z,22.30
2018-06-23T14:01:42.153Z,19.90
2018-06-23T14:05:44.328Z,19.80
2018-06-23T14:09:46.507Z,19.50
2018-06-23T14:13:48.713Z,19.70
2018-06-23T14:17:50.955Z,20.10
2018-06-23T14:21:53.176Z,20.20
2018-06-23T14:25:55.371Z,20.10
2018-06-23T14:29:57.544Z,20.20
2018-06-23T14:33:59.744Z,20.60
2018-06-23T14:38:01.932Z,20.80
2018-06-23T14:42:04.148Z,21.00
2018-06-23T14:46:06.360Z,20.70
2018-06-23T14:50:08.577Z,20.80
2018-06-23T14:54:10.755Z,20.70
2018-06-23T15:02:15.265Z,20.60
2018-06-23T15:06:17.456Z,20.40
2018-06-23T15:10:31.067Z,20.30
2018-06-23T15:14:33.237Z,19.60
2018-06-23T15:18:35.424Z,19.50
2018-06-23T15:22:37.684Z,19.60
2018-06-23T15:26:39.860Z,19.60
2018-06-23T15:30:42.042Z,23.50
2018-06-23T15:34:44.218Z,19.90
2018-06-23T15:38:46.473Z,20.20
2018-06-23T15:42:48.784Z,20.10
2018-06-23T15:46:51.091Z,20.30
2018-06-23T15:54:55.819Z,20.40
2018-06-23T15:58:58.016Z,20.50
2018-06-23T16:03:00.228Z,20.40
2018-06-23T16:07:02.431Z,20.20
2018-06-23T16:11:04.675Z,20.00
2018-06-23T16:15:06.901Z,19.70
2018-06-23T16:19:09.096Z,19.60
2018-06-23T16:23:11.370Z,22.10
2018-06-23T16:27:13.562Z,16.50
2018-06-23T16:31:15.740Z,19.90
2018-06-23T16:35:18.144Z,19.90
2018-06-23T16:39:20.112Z,19.90
2018-06-23T16:43:22.307Z,19.90
2018-06-23T16:47:24.484Z,19.90
2018-06-23T16:51:26.924Z,19.90
2018-06-23T16:55:29.137Z,19.90
2018-06-23T16:59:31.376Z,20.00
2018-06-23T17:03:33.662Z,19.80
2018-06-23T17:07:35.803Z,19.80
2018-06-23T17:11:38.200Z,19.70
2018-06-23T17:15:40.444Z,19.80
2018-06-23T17:19:42.636Z,19.50
2018-06-23T17:23:44.808Z,21.90
2018-06-23T17:27:47.008Z,19.00
2018-06-23T17:35:51.492Z,18.70
2018-06-23T17:39:53.716Z,18.60
2018-06-23T17:43:55.968Z,18.70
2018-06-23T17:47:58.190Z,18.60
2018-06-23T17:52:00.371Z,18.30
2018-06-23T17:56:02.669Z,18.10
2018-06-23T18:00:05.848Z,18.00
2018-06-23T18:04:08.040Z,17.80
2018-06-23T18:08:10.228Z,17.80
2018-06-23T18:12:12.487Z,17.80
2018-06-23T18:16:14.636Z,17.80
2018-06-23T18:20:16.832Z,17.60
2018-06-23T18:24:19.038Z,17.60
2018-06-23T18:28:21.235Z,17.60
2018-06-23T18:32:23.423Z,18.30
2018-06-23T18:36:25.652Z,17.60
2018-06-23T18:40:27.835Z,17.60
2018-06-23T18:44:30.052Z,17.40
2018-06-23T18:48:32.277Z,17.40
2018-06-23T18:52:34.496Z,17.40
2018-06-23T18:56:36.677Z,17.40
2018-06-23T19:00:38.973Z,17.40
2018-06-23T19:04:41.134Z,21.70
2018-06-23T19:08:43.384Z,17.40
2018-06-23T19:12:45.584Z,17.30
2018-06-23T19:16:49.111Z,17.20
2018-06-23T19:20:51.309Z,17.10
2018-06-23T19:24:53.584Z,17.10
2018-06-23T19:28:55.789Z,17.00
2018-06-23T19:32:58.000Z,16.90
2018-06-23T19:37:00.210Z,16.90
2018-06-23T19:41:12.688Z,16.80
2018-06-23T19:45:14.912Z,16.70
2018-06-23T19:49:17.100Z,16.60
2018-06-23T19:53:19.276Z,16.50
2018-06-23T19:57:21.492Z,16.40
2018-06-23T20:01:23.659Z,16.80
2018-06-23T20:05:25.856Z,16.20
2018-06-23T20:09:28.044Z,16.10
2018-06-23T20:13:30.232Z,16.00
2018-06-23T20:17:32.408Z,15.90
2018-06-23T20:21:34.604Z,15.80
2018-06-23T20:25:36.776Z,15.70
2018-06-23T20:29:38.945Z,15.70
2018-06-23T20:33:41.150Z,15.70
2018-06-23T20:37:43.369Z,15.60
2018-06-23T20:41:45.617Z,15.50
2018-06-23T20:45:47.785Z,15.50
2018-06-23T20:49:49.968Z,15.40
2018-06-23T20:53:52.168Z,15.50
2018-06-23T20:57:54.344Z,15.30
2018-06-23T21:01:56.541Z,15.20
2018-06-23T21:05:58.764Z,15.10
2018-06-23T21:10:00.959Z,15.40
2018-06-23T21:14:03.289Z,15.00
2018-06-23T21:18:05.706Z,14.90
2018-06-23T21:22:07.892Z,14.90
2018-06-23T21:26:10.096Z,14.90
2018-06-23T21:30:12.312Z,14.80
2018-06-23T21:34:14.506Z,14.80
2018-06-23T21:38:16.684Z,14.70
2018-06-23T21:42:18.872Z,14.70
2018-06-23T21:46:21.071Z,14.60
2018-06-23T21:50:23.267Z,14.60
2018-06-23T21:54:26.436Z,14.60
2018-06-23T21:58:28.653Z,14.60
2018-06-23T22:02:30.863Z,14.60
2018-06-23T22:06:33.096Z,14.60
2018-06-23T22:10:35.300Z,14.40
2018-06-23T22:14:37.516Z,14.70
2018-06-23T22:18:39.692Z,14.70
2018-06-23T22:22:41.884Z,14.80
2018-06-23T22:30:46.320Z,14.80
2018-06-23T22:34:48.548Z,15.00
2018-06-23T22:42:52.986Z,14.90
2018-06-23T22:46:55.183Z,14.80
2018-06-23T22:50:57.372Z,15.60
2018-06-23T22:54:59.615Z,15.00
2018-06-23T22:59:01.868Z,14.80
2018-06-23T23:03:04.416Z,14.70
2018-06-23T23:07:06.640Z,14.70
2018-06-23T23:11:08.868Z,14.70
2018-06-23T23:15:11.104Z,14.60
2018-06-23T23:19:13.387Z,14.60
2018-06-23T23:23:15.648Z,14.60
2018-06-23T23:27:17.833Z,14.70
2018-06-23T23:31:20.024Z,14.60
2018-06-23T23:35:22.212Z,15.10
2018-06-23T23:39:24.400Z,14.70
2018-06-23T23:43:26.580Z,14.70
2018-06-23T23:47:28.760Z,14.70
2018-06-23T23:51:30.952Z,14.70
2018-06-23T23:55:33.168Z,14.70
2018-06-23T23:59:35.369Z,14.90
